Taos Pueblo, New Mexico
Current Conditions -  °F | °C
As of 4:15 AM on Saturday 25 Oct 2014 (Local Time) from KSKX Reporting Station
Clear Clear  
Wind Chill: 31°   Ceiling: Unl
Heat Index: 36°   Visibility: 10mi
Dew Point: 21°   Wind: 6mph
Humidity: 56%   Direction: 10°N
Pressure: 30.39"   Gusts: NA
Location:  36.4227°N, 105.509°W
Report Text: KSKX 251015Z AUTO 01005KT 10SM CLR 02/M06 A3039 RMK AO1
Loading
Personal Weather Stations






























Interactive Weather Map
Tropical Storm Tracking
New forecast layout! Learn more

10-Day Weather Forecast

Advertisements
Track Severe Weather on mobile